| time (UTC) | temp F | wind direction | speed MPH | gust MPH | rain 1hr in | rain 24hr in | rain mn in | humidity % | barometer mb |
| 20260502183719 | 60 | 346 | 7.0 | 11.0 | 0.00 | 0.00 | 0.00 | 41 | 1020.5 |
| 20260502183214 | 60 | 2 | 8.0 | 10.0 | 0.00 | 0.00 | 0.00 | 41 | 1020.5 |
| 20260502182710 | 59 | 29 | 4.0 | 14.0 | 0.00 | 0.00 | 0.00 | 42 | 1020.6 |
| 20260502182205 | 60 | 18 | 4.0 | 11.0 | 0.00 | 0.00 | 0.00 | 42 | 1020.5 |
| 20260502181703 | 60 | 352 | 5.0 | 9.0 | 0.00 | 0.00 | 0.00 | 43 | 1020.6 |
| 20260502181203 | 60 | 15 | 4.0 | 9.0 | 0.00 | 0.00 | 0.00 | 41 | 1020.5 |
| 20260502180658 | 60 | 359 | 7.0 | 11.0 | 0.00 | 0.00 | 0.00 | 41 | 1020.6 |
| 20260502180156 | 60 | 2 | 5.0 | 9.0 | 0.00 | 0.00 | 0.00 | 42 | 1020.6 |
| 20260502170114 | 60 | 6 | 9.0 | 16.0 | 0.00 | 0.00 | 0.00 | 39 | 1020.4 |
| 20260502164101 | 60 | 312 | 8.0 | 17.0 | 0.00 | 0.00 | 0.00 | 37 | 1020.4 |
| 20260502163556 | 59 | 331 | 12.0 | 16.0 | 0.00 | 0.00 | 0.00 | 36 | 1020.3 |
| 20260502163054 | 59 | 327 | 16.0 | 18.0 | 0.00 | 0.00 | 0.00 | 36 | 1020.5 |
| 20260502162550 | 58 | 342 | 8.0 | 18.0 | 0.00 | 0.00 | 0.00 | 37 | 1020.4 |
| 20260502162048 | 58 | 313 | 11.0 | 16.0 | 0.00 | 0.00 | 0.00 | 38 | 1020.4 |
| 20260502161544 | 58 | 320 | 9.0 | 13.0 | 0.00 | 0.00 | 0.00 | 38 | 1020.4 |
| 20260502161042 | 58 | 346 | 10.0 | 14.0 | 0.00 | 0.00 | 0.00 | 38 | 1020.3 |
| 20260502160540 | 59 | 340 | 11.0 | 13.0 | 0.00 | 0.00 | 0.00 | 37 | 1020.2 |
| 20260502151953 | 58 | 341 | 6.0 | 7.0 | 0.00 | 0.00 | 0.00 | 36 | 1020.0 |
| 20260502151449 | 58 | 312 | 8.0 | 9.0 | 0.00 | 0.00 | 0.00 | 34 | 1019.8 |
| 20260502150947 | 58 | 298 | 5.0 | 9.0 | 0.00 | 0.00 | 0.00 | 36 | 1020.0 |
| 20260502150444 | 58 | 24 | 4.0 | 6.0 | 0.00 | 0.00 | 0.00 | 34 | 1020.2 |
| 20260502130329 | 49 | 307 | 3.0 | 6.0 | 0.00 | 0.00 | 0.00 | 41 | 1019.3 |
| 20260502123815 | 48 | 351 | 2.0 | 3.0 | 0.00 | 0.00 | 0.00 | 42 | 1019.0 |
| 20260502123312 | 47 | 304 | 3.0 | 3.0 | 0.00 | 0.00 | 0.00 | 42 | 1018.9 |
| 20260502122809 | 47 | 306 | 4.0 | 6.0 | 0.00 | 0.00 | 0.00 | 40 | 1018.8 |
| 20260502122306 | 47 | 306 | 3.0 | 4.0 | 0.00 | 0.00 | 0.00 | 41 | 1018.7 |
| 20260502121803 | 46 | 346 | 3.0 | 4.0 | 0.00 | 0.00 | 0.00 | 41 | 1018.8 |
| 20260502121300 | 46 | 316 | 2.0 | 4.0 | 0.00 | 0.00 | 0.00 | 42 | 1018.8 |
| 20260502120757 | 46 | 315 | 2.0 | 3.0 | 0.00 | 0.00 | 0.00 | 42 | 1018.6 |
| 20260502120254 | 47 | 346 | 2.0 | 3.0 | 0.00 | 0.00 | 0.00 | 41 | 1018.8 |
| 20260502115752 | 47 | 322 | 2.0 | 3.0 | 0.00 | 0.00 | 0.00 | 40 | 1018.7 |
| 20260502115248 | 46 | 303 | 3.0 | 3.0 | 0.00 | 0.00 | 0.00 | 42 | 1018.6 |
| 20260502114744 | 46 | 31 | 1.0 | 2.0 | 0.00 | 0.00 | 0.00 | 42 | 1018.7 |
| 20260502114241 | 46 | 14 | 1.0 | 2.0 | 0.00 | 0.00 | 0.00 | 42 | 1018.7 |
| 20260502113738 | 47 | 312 | 1.0 | 3.0 | 0.00 | 0.00 | 0.00 | 41 | 1018.6 |
| 20260502113236 | 47 | 323 | 3.0 | 3.0 | 0.00 | 0.00 | 0.00 | 40 | 1018.5 |
| 20260502112734 | 47 | 311 | 3.0 | 4.0 | 0.00 | 0.00 | 0.00 | 40 | 1018.6 |
| 20260502112231 | 46 | 3 | 2.0 | 2.0 | 0.00 | 0.00 | 0.00 | 42 | 1018.6 |
| 20260502111728 | 45 | 16 | 1.0 | 2.0 | 0.00 | 0.00 | 0.00 | 43 | 1018.6 |
| 20260502111226 | 46 | 59 | 1.0 | 2.0 | 0.00 | 0.00 | 0.00 | 43 | 1018.7 |
| 20260502110723 | 47 | 327 | 1.0 | 2.0 | 0.00 | 0.00 | 0.00 | 42 | 1018.8 |
| 20260502110221 | 48 | 324 | 2.0 | 4.0 | 0.00 | 0.00 | 0.00 | 40 | 1018.7 |
| 20260502105719 | 50 | 356 | 4.0 | 4.0 | 0.00 | 0.00 | 0.00 | 39 | 1018.7 |
| 20260502105215 | 49 | 323 | 3.0 | 4.0 | 0.00 | 0.00 | 0.00 | 36 | 1018.5 |
| 20260502104712 | 48 | 10 | 2.0 | 3.0 | 0.00 | 0.00 | 0.00 | 38 | 1018.5 |
| 20260502104210 | 48 | 351 | 2.0 | 2.0 | 0.00 | 0.00 | 0.00 | 39 | 1018.5 |
| 20260502103707 | 47 | 55 | 1.0 | 3.0 | 0.00 | 0.00 | 0.00 | 41 | 1018.5 |
| 20260502103205 | 47 | 50 | 1.0 | 2.0 | 0.00 | 0.00 | 0.00 | 42 | 1018.5 |
| 20260502102702 | 47 | 17 | 2.0 | 4.0 | 0.00 | 0.00 | 0.00 | 42 | 1018.6 |
| 20260502102158 | 47 | 319 | 2.0 | 3.0 | 0.00 | 0.00 | 0.00 | 42 | 1018.5 |
| 20260502101656 | 47 | 346 | 1.0 | 3.0 | 0.00 | 0.00 | 0.00 | 42 | 1018.5 |
| 20260502101154 | 47 | 14 | 1.0 | 2.0 | 0.00 | 0.00 | 0.00 | 43 | 1018.4 |
| 20260502100652 | 47 | 300 | 3.0 | 4.0 | 0.00 | 0.00 | 0.00 | 42 | 1018.5 |
| 20260502100150 | 48 | 336 | 1.0 | 2.0 | 0.00 | 0.00 | 0.00 | 41 | 1018.5 |
| 20260502091124 | 51 | 297 | 4.0 | 4.0 | 0.00 | 0.00 | 0.00 | 36 | 1018.4 |
| 20260502090621 | 52 | 326 | 3.0 | 6.0 | 0.00 | 0.00 | 0.00 | 36 | 1018.1 |
| 20260502090119 | 52 | 325 | 4.0 | 6.0 | 0.00 | 0.00 | 0.00 | 36 | 1018.2 |
| 20260502071516 | 52 | 105 | 1.0 | 6.0 | 0.00 | 0.00 | 0.00 | 40 | 1019.0 |
| 20260502071014 | 50 | 70 | 1.0 | 2.0 | 0.00 | 0.00 | 0.00 | 42 | 1019.1 |
| 20260502070512 | 53 | 131 | 2.0 | 3.0 | 0.00 | 0.00 | 0.00 | 41 | 1018.9 |
| 20260502070010 | 54 | 135 | 3.0 | 6.0 | 0.00 | 0.00 | 0.00 | 39 | 1018.7 |
| 20260502065508 | 54 | 146 | 5.0 | 7.0 | 0.00 | 0.00 | 0.00 | 39 | 1018.7 |
| 20260502065006 | 54 | 164 | 4.0 | 7.0 | 0.00 | 0.00 | 0.00 | 41 | 1018.8 |
| 20260502064504 | 54 | 145 | 5.0 | 6.0 | 0.00 | 0.00 | 0.00 | 40 | 1018.7 |
| 20260502064000 | 54 | 137 | 4.0 | 6.0 | 0.00 | 0.00 | 0.00 | 40 | 1018.6 |
| 20260502063459 | 54 | 132 | 5.0 | 6.0 | 0.00 | 0.00 | 0.00 | 41 | 1018.8 |
| 20260502062955 | 53 | 137 | 4.0 | 6.0 | 0.00 | 0.00 | 0.00 | 42 | 1018.7 |
| 20260502062452 | 54 | 134 | 5.0 | 6.0 | 0.00 | 0.00 | 0.00 | 41 | 1018.7 |
| 20260502061951 | 54 | 148 | 5.0 | 7.0 | 0.00 | 0.00 | 0.00 | 41 | 1018.7 |
| 20260502061449 | 52 | 135 | 6.0 | 7.0 | 0.00 | 0.00 | 0.00 | 44 | 1018.9 |
| 20260502060944 | 53 | 135 | 4.0 | 6.0 | 0.00 | 0.00 | 0.00 | 42 | 1018.8 |
| 20260502060440 | 52 | 122 | 4.0 | 6.0 | 0.00 | 0.00 | 0.00 | 44 | 1019.0 |
| 20260502055937 | 53 | 119 | 4.0 | 6.0 | 0.00 | 0.00 | 0.00 | 43 | 1018.7 |
| 20260502055435 | 53 | 125 | 4.0 | 6.0 | 0.00 | 0.00 | 0.00 | 43 | 1019.0 |
| 20260502054929 | 53 | 129 | 4.0 | 6.0 | 0.00 | 0.00 | 0.00 | 43 | 1018.7 |
| 20260502054426 | 53 | 120 | 5.0 | 6.0 | 0.00 | 0.00 | 0.00 | 43 | 1018.9 |
| 20260502053924 | 52 | 143 | 5.0 | 6.0 | 0.00 | 0.00 | 0.00 | 44 | 1019.0 |
| 20260502053421 | 52 | 128 | 5.0 | 7.0 | 0.00 | 0.00 | 0.00 | 45 | 1018.9 |
| 20260502052918 | 52 | 124 | 5.0 | 6.0 | 0.00 | 0.00 | 0.00 | 44 | 1019.1 |
| 20260502052416 | 53 | 128 | 5.0 | 8.0 | 0.00 | 0.00 | 0.00 | 42 | 1019.0 |
| 20260502051914 | 53 | 120 | 6.0 | 7.0 | 0.00 | 0.00 | 0.00 | 42 | 1019.0 |
| 20260502051412 | 53 | 127 | 6.0 | 6.0 | 0.00 | 0.00 | 0.00 | 42 | 1019.1 |
| 20260502050909 | 54 | 119 | 5.0 | 8.0 | 0.00 | 0.00 | 0.00 | 41 | 1019.1 |
| 20260502050405 | 53 | 125 | 4.0 | 7.0 | 0.00 | 0.00 | 0.00 | 43 | 1019.0 |
| 20260502045903 | 53 | 132 | 4.0 | 4.0 | 0.00 | 0.00 | 0.00 | 44 | 1019.1 |
| 20260502045359 | 53 | 130 | 4.0 | 6.0 | 0.00 | 0.00 | 0.00 | 44 | 1019.0 |
| 20260502044856 | 53 | 122 | 6.0 | 6.0 | 0.00 | 0.00 | 0.00 | 44 | 1019.3 |
| 20260502044351 | 53 | 123 | 5.0 | 6.0 | 0.00 | 0.00 | 0.00 | 43 | 1019.5 |
| 20260502043849 | 54 | 122 | 5.0 | 7.0 | 0.00 | 0.00 | 0.00 | 42 | 1019.1 |
| 20260502043347 | 54 | 118 | 7.0 | 8.0 | 0.00 | 0.00 | 0.00 | 41 | 1019.3 |
| 20260502042846 | 54 | 117 | 6.0 | 6.0 | 0.00 | 0.00 | 0.00 | 42 | 1019.1 |
| 20260502042344 | 55 | 116 | 6.0 | 8.0 | 0.00 | 0.00 | 0.00 | 41 | 1019.1 |
| 20260502041841 | 54 | 103 | 7.0 | 8.0 | 0.00 | 0.00 | 0.00 | 41 | 1019.4 |
| 20260502041338 | 55 | 129 | 4.0 | 7.0 | 0.00 | 0.00 | 0.00 | 42 | 1019.4 |
| 20260502040835 | 55 | 120 | 6.0 | 7.0 | 0.00 | 0.00 | 0.00 | 40 | 1019.1 |
| 20260502040332 | 55 | 119 | 5.0 | 6.0 | 0.00 | 0.00 | 0.00 | 40 | 1019.3 |
| 20260502035828 | 55 | 120 | 6.0 | 8.0 | 0.00 | 0.00 | 0.00 | 41 | 1019.3 |
| 20260502035325 | 55 | 123 | 4.0 | 6.0 | 0.00 | 0.00 | 0.00 | 40 | 1019.3 |
| 20260502034822 | 56 | 121 | 4.0 | 4.0 | 0.00 | 0.00 | 0.00 | 40 | 1019.1 |
| 20260502034321 | 56 | 125 | 4.0 | 7.0 | 0.00 | 0.00 | 0.00 | 39 | 1019.3 |
| 20260502033819 | 56 | 117 | 4.0 | 4.0 | 0.00 | 0.00 | 0.00 | 39 | 1019.1 |
| 20260502033316 | 57 | 122 | 6.0 | 8.0 | 0.00 | 0.00 | 0.00 | 39 | 1019.3 |
| 20260502032813 | 57 | 121 | 5.0 | 6.0 | 0.00 | 0.00 | 0.00 | 38 | 1019.1 |
| 20260502032309 | 57 | 122 | 3.0 | 6.0 | 0.00 | 0.00 | 0.00 | 38 | 1019.0 |
| 20260502031806 | 57 | 125 | 3.0 | 4.0 | 0.00 | 0.00 | 0.00 | 37 | 1019.0 |
| 20260502031304 | 58 | 125 | 4.0 | 4.0 | 0.00 | 0.00 | 0.00 | 37 | 1019.3 |
| 20260502030803 | 58 | 113 | 4.0 | 6.0 | 0.00 | 0.00 | 0.00 | 36 | 1019.1 |
| 20260502030300 | 58 | 117 | 4.0 | 4.0 | 0.00 | 0.00 | 0.00 | 36 | 1019.0 |
| 20260502025758 | 58 | 108 | 4.0 | 4.0 | 0.00 | 0.00 | 0.00 | 37 | 1019.1 |
| 20260502025255 | 58 | 119 | 3.0 | 7.0 | 0.00 | 0.00 | 0.00 | 36 | 1018.9 |
| 20260502024753 | 59 | 125 | 3.0 | 3.0 | 0.00 | 0.00 | 0.00 | 36 | 1018.9 |
| 20260502024250 | 60 | 112 | 3.0 | 4.0 | 0.00 | 0.00 | 0.00 | 35 | 1018.9 |
| 20260502023748 | 60 | 134 | 6.0 | 7.0 | 0.00 | 0.00 | 0.00 | 33 | 1018.7 |
| 20260502023246 | 60 | 137 | 4.0 | 7.0 | 0.00 | 0.00 | 0.00 | 34 | 1018.9 |
| 20260502022743 | 61 | 130 | 5.0 | 7.0 | 0.00 | 0.00 | 0.00 | 33 | 1018.7 |
| 20260502022239 | 61 | 155 | 5.0 | 7.0 | 0.00 | 0.00 | 0.00 | 33 | 1018.8 |
| 20260502021736 | 61 | 152 | 6.0 | 8.0 | 0.00 | 0.00 | 0.00 | 32 | 1018.9 |
| 20260502021234 | 61 | 147 | 4.0 | 6.0 | 0.00 | 0.00 | 0.00 | 33 | 1018.6 |
| 20260502020731 | 62 | 119 | 3.0 | 4.0 | 0.00 | 0.00 | 0.00 | 33 | 1018.7 |
| 20260502020228 | 62 | 125 | 3.0 | 6.0 | 0.00 | 0.00 | 0.00 | 33 | 1018.9 |
| 20260502015726 | 62 | 106 | 5.0 | 8.0 | 0.00 | 0.00 | 0.00 | 32 | 1018.7 |
| 20260502015222 | 63 | 134 | 4.0 | 8.0 | 0.00 | 0.00 | 0.00 | 32 | 1018.8 |
| 20260502014720 | 64 | 115 | 8.0 | 10.0 | 0.00 | 0.00 | 0.00 | 31 | 1018.8 |
| 20260502014216 | 66 | 115 | 5.0 | 7.0 | 0.00 | 0.00 | 0.00 | 28 | 1018.8 |
| 20260502013713 | 67 | 102 | 3.0 | 3.0 | 0.00 | 0.00 | 0.00 | 23 | 1018.7 |
| 20260502013208 | 68 | 119 | 2.0 | 2.0 | 0.00 | 0.00 | 0.00 | 25 | 1018.7 |
| 20260502012705 | 68 | 107 | 0.0 | 1.0 | 0.00 | 0.00 | 0.00 | 21 | 1018.6 |
| 20260502012203 | 69 | 117 | 0.0 | 1.0 | 0.00 | 0.00 | 0.00 | 21 | 1018.9 |
| 20260502011700 | 68 | 128 | 1.0 | 2.0 | 0.00 | 0.00 | 0.00 | 23 | 1018.7 |
| 20260502011155 | 68 | 203 | 3.0 | 3.0 | 0.00 | 0.00 | 0.00 | 21 | 1018.8 |
| 20260502010654 | 68 | 218 | 4.0 | 4.0 | 0.00 | 0.00 | 0.00 | 24 | 1019.0 |
| 20260502010149 | 70 | 200 | 3.0 | 3.0 | 0.00 | 0.00 | 0.00 | 22 | 1018.9 |
| 20260502005647 | 69 | 79 | 1.0 | 2.0 | 0.00 | 0.00 | 0.00 | 22 | 1018.9 |
| 20260502005144 | 69 | 34 | 1.0 | 2.0 | 0.00 | 0.00 | 0.00 | 22 | 1018.9 |
| 20260502004640 | 69 | 28 | 2.0 | 3.0 | 0.00 | 0.00 | 0.00 | 23 | 1018.9 |
| 20260502004137 | 70 | 112 | 0.0 | 2.0 | 0.00 | 0.00 | 0.00 | 21 | 1019.1 |
| 20260502003635 | 68 | 103 | 0.0 | 3.0 | 0.00 | 0.00 | 0.00 | 22 | 1019.0 |
| 20260502003132 | 69 | 159 | 5.0 | 6.0 | 0.00 | 0.00 | 0.00 | 22 | 1019.1 |
| 20260502002628 | 70 | 73 | 1.0 | 1.0 | 0.00 | 0.00 | 0.00 | 22 | 1019.0 |
| 20260502002126 | 69 | 153 | 3.0 | 6.0 | 0.00 | 0.00 | 0.00 | 22 | 1019.1 |
| 20260502001623 | 69 | 266 | 3.0 | 4.0 | 0.00 | 0.00 | 0.00 | 22 | 1019.4 |
| 20260502001120 | 69 | 217 | 7.0 | 7.0 | 0.00 | 0.00 | 0.00 | 22 | 1019.0 |
| 20260502000619 | 70 | 208 | 3.0 | 8.0 | 0.00 | 0.00 | 0.00 | 21 | 1019.0 |
| 20260502000116 | 68 | 191 | 3.0 | 7.0 | 0.00 | 0.00 | 0.00 | 23 | 1019.3 |
| 20260501235611 | 69 | 154 | 2.0 | 4.0 | 0.00 | 0.00 | 0.00 | 23 | 1019.3 |
| 20260501235108 | 69 | 278 | 2.0 | 6.0 | 0.00 | 0.00 | 0.00 | 23 | 1019.3 |
| 20260501234603 | 69 | 279 | 4.0 | 4.0 | 0.00 | 0.00 | 0.00 | 24 | 1019.1 |
| 20260501234101 | 69 | 239 | 4.0 | 6.0 | 0.00 | 0.00 | 0.00 | 23 | 1019.1 |
| 20260501233559 | 69 | 326 | 5.0 | 8.0 | 0.00 | 0.00 | 0.00 | 23 | 1019.3 |
| 20260501233056 | 69 | 22 | 5.0 | 7.0 | 0.00 | 0.00 | 0.00 | 23 | 1019.1 |
| 20260501232552 | 69 | 358 | 4.0 | 4.0 | 0.00 | 0.00 | 0.00 | 22 | 1019.1 |
| 20260501232049 | 68 | 315 | 6.0 | 8.0 | 0.00 | 0.00 | 0.00 | 23 | 1019.1 |
| 20260501231547 | 69 | 309 | 3.0 | 9.0 | 0.00 | 0.00 | 0.00 | 23 | 1019.4 |
| 20260501231045 | 68 | 258 | 4.0 | 9.0 | 0.00 | 0.00 | 0.00 | 22 | 1019.3 |
| 20260501230543 | 69 | 281 | 9.0 | 10.0 | 0.00 | 0.00 | 0.00 | 24 | 1018.9 |
| 20260501230041 | 69 | 36 | 2.0 | 4.0 | 0.00 | 0.00 | 0.00 | 22 | 1019.3 |
| 20260501225538 | 69 | 333 | 3.0 | 4.0 | 0.00 | 0.00 | 0.00 | 21 | 1019.4 |
| 20260501225034 | 68 | 215 | 4.0 | 8.0 | 0.00 | 0.00 | 0.00 | 22 | 1019.1 |
| 20260501224532 | 69 | 19 | 7.0 | 8.0 | 0.00 | 0.00 | 0.00 | 23 | 1019.4 |
| 20260501224029 | 69 | 359 | 8.0 | 9.0 | 0.00 | 0.00 | 0.00 | 22 | 1019.4 |
| 20260501223525 | 69 | 323 | 8.0 | 11.0 | 0.00 | 0.00 | 0.00 | 22 | 1019.3 |
| 20260501223021 | 69 | 297 | 3.0 | 4.0 | 0.00 | 0.00 | 0.00 | 22 | 1019.5 |
| 20260501222518 | 68 | 75 | 1.0 | 3.0 | 0.00 | 0.00 | 0.00 | 22 | 1019.4 |
| 20260501222015 | 69 | 168 | 1.0 | 4.0 | 0.00 | 0.00 | 0.00 | 25 | 1019.7 |
| 20260501221511 | 69 | 283 | 2.0 | 3.0 | 0.00 | 0.00 | 0.00 | 22 | 1019.6 |
| 20260501221009 | 69 | 164 | 4.0 | 4.0 | 0.00 | 0.00 | 0.00 | 23 | 1019.6 |
| 20260501220507 | 68 | 110 | 4.0 | 7.0 | 0.00 | 0.00 | 0.00 | 22 | 1019.5 |
| 20260501220003 | 69 | 13 | 4.0 | 6.0 | 0.00 | 0.00 | 0.00 | 24 | 1019.8 |
| 20260501215459 | 70 | 238 | 2.0 | 2.0 | 0.00 | 0.00 | 0.00 | 22 | 1019.5 |
| 20260501214955 | 68 | 286 | 3.0 | 6.0 | 0.00 | 0.00 | 0.00 | 23 | 1019.8 |
| 20260501214450 | 68 | 306 | 6.0 | 10.0 | 0.00 | 0.00 | 0.00 | 23 | 1019.9 |
| 20260501213946 | 68 | 157 | 0.0 | 9.0 | 0.00 | 0.00 | 0.00 | 24 | 1020.0 |
| 20260501213444 | 68 | 202 | 5.0 | 16.0 | 0.00 | 0.00 | 0.00 | 22 | 1019.9 |
| 20260501212938 | 67 | 232 | 4.0 | 8.0 | 0.00 | 0.00 | 0.00 | 26 | 1020.2 |
| 20260501212436 | 68 | 277 | 4.0 | 8.0 | 0.00 | 0.00 | 0.00 | 24 | 1020.0 |
| 20260501211932 | 68 | 199 | 4.0 | 6.0 | 0.00 | 0.00 | 0.00 | 23 | 1020.2 |
| 20260501211430 | 68 | 269 | 9.0 | 11.0 | 0.00 | 0.00 | 0.00 | 23 | 1020.0 |
| 20260501210927 | 68 | 306 | 8.0 | 10.0 | 0.00 | 0.00 | 0.00 | 23 | 1020.2 |
| 20260501210424 | 68 | 186 | 4.0 | 10.0 | 0.00 | 0.00 | 0.00 | 22 | 1020.0 |
| 20260501205920 | 67 | 62 | 2.0 | 6.0 | 0.00 | 0.00 | 0.00 | 22 | 1020.0 |
| 20260501205417 | 67 | 317 | 4.0 | 7.0 | 0.00 | 0.00 | 0.00 | 23 | 1020.3 |
| 20260501204915 | 67 | 351 | 5.0 | 9.0 | 0.00 | 0.00 | 0.00 | 23 | 1020.2 |
| 20260501204410 | 67 | 328 | 5.0 | 7.0 | 0.00 | 0.00 | 0.00 | 23 | 1020.2 |
| 20260501203906 | 68 | 351 | 6.0 | 8.0 | 0.00 | 0.00 | 0.00 | 26 | 1020.4 |
| 20260501203404 | 69 | 319 | 2.0 | 2.0 | 0.00 | 0.00 | 0.00 | 25 | 1020.2 |
| 20260501202901 | 67 | 12 | 3.0 | 4.0 | 0.00 | 0.00 | 0.00 | 24 | 1020.3 |
| 20260501202358 | 67 | 61 | 2.0 | 3.0 | 0.00 | 0.00 | 0.00 | 26 | 1020.3 |
| 20260501201855 | 67 | 357 | 6.0 | 8.0 | 0.00 | 0.00 | 0.00 | 26 | 1020.2 |
| 20260501201352 | 68 | 334 | 6.0 | 9.0 | 0.00 | 0.00 | 0.00 | 28 | 1020.4 |
| 20260501200848 | 67 | 112 | 0.0 | 6.0 | 0.00 | 0.00 | 0.00 | 27 | 1020.4 |
| 20260501200345 | 66 | 327 | 6.0 | 8.0 | 0.00 | 0.00 | 0.00 | 26 | 1020.5 |
| 20260501195843 | 66 | 276 | 3.0 | 8.0 | 0.00 | 0.00 | 0.00 | 25 | 1020.4 |
| 20260501195338 | 66 | 358 | 6.0 | 9.0 | 0.00 | 0.00 | 0.00 | 26 | 1020.3 |
| 20260501194835 | 67 | 288 | 3.0 | 7.0 | 0.00 | 0.00 | 0.00 | 26 | 1020.5 |
| 20260501194331 | 66 | 125 | 0.0 | 4.0 | 0.00 | 0.00 | 0.00 | 28 | 1020.4 |
| 20260501193827 | 66 | 64 | 4.0 | 8.0 | 0.00 | 0.00 | 0.00 | 29 | 1020.7 |
| 20260501193326 | 67 | 328 | 6.0 | 7.0 | 0.00 | 0.00 | 0.00 | 28 | 1020.3 |
| 20260501192823 | 65 | 97 | 0.0 | 4.0 | 0.00 | 0.00 | 0.00 | 28 | 1020.5 |
| 20260501192320 | 65 | 250 | 3.0 | 7.0 | 0.00 | 0.00 | 0.00 | 27 | 1020.6 |
| 20260501191817 | 64 | 174 | 7.0 | 7.0 | 0.00 | 0.00 | 0.00 | 27 | 1020.4 |
| 20260501191314 | 66 | 204 | 8.0 | 9.0 | 0.00 | 0.00 | 0.00 | 27 | 1020.6 |
| 20260501190811 | 64 | 40 | 2.0 | 6.0 | 0.00 | 0.00 | 0.00 | 27 | 1020.7 |
| 20260501190307 | 64 | 260 | 7.0 | 13.0 | 0.00 | 0.00 | 0.00 | 28 | 1020.6 |
| 20260501185802 | 64 | 235 | 4.0 | 7.0 | 0.00 | 0.00 | 0.00 | 28 | 1020.8 |
| 20260501185259 | 65 | 337 | 7.0 | 10.0 | 0.00 | 0.00 | 0.00 | 29 | 1020.8 |
| 20260501184754 | 64 | 189 | 4.0 | 8.0 | 0.00 | 0.00 | 0.00 | 27 | 1020.8 |
| 20260501184250 | 64 | 276 | 4.0 | 11.0 | 0.00 | 0.00 | 0.00 | 29 | 1020.8 |